createdAt,value
2018-03-17T00:01:13.059Z,69.16
2018-03-17T00:03:44.047Z,68.96
2018-03-17T00:06:15.049Z,68.95
2018-03-17T00:08:46.018Z,68.93
2018-03-17T00:11:16.989Z,68.74
2018-03-17T00:13:47.972Z,68.66
2018-03-17T00:16:19.005Z,68.58
2018-03-17T00:18:50.012Z,68.79
2018-03-17T00:21:20.979Z,68.73
2018-03-17T00:23:51.976Z,68.66
2018-03-17T00:26:22.965Z,68.86
2018-03-17T00:28:53.988Z,69.38
2018-03-17T00:31:24.982Z,69.51
2018-03-17T00:33:56.001Z,69.74
2018-03-17T00:36:26.968Z,69.84
2018-03-17T00:38:57.974Z,69.71
2018-03-17T00:41:28.954Z,69.95
2018-03-17T00:43:59.944Z,70.18
2018-03-17T00:46:30.955Z,70.89
2018-03-17T00:49:01.966Z,70.79
2018-03-17T00:51:32.931Z,70.64
2018-03-17T00:54:03.977Z,71.07
2018-03-17T00:56:34.964Z,70.98
2018-03-17T00:59:05.960Z,71.16
2018-03-17T01:01:36.961Z,71.04
2018-03-17T01:04:07.947Z,71.02
2018-03-17T01:06:39.042Z,71.60
2018-03-17T01:09:10.055Z,71.68
2018-03-17T01:11:41.082Z,71.20
2018-03-17T01:14:12.069Z,70.98
2018-03-17T01:16:43.122Z,70.91
2018-03-17T01:19:14.125Z,70.68
2018-03-17T01:21:45.388Z,70.70
2018-03-17T01:24:16.403Z,70.93
2018-03-17T01:26:47.403Z,71.15
2018-03-17T01:29:18.393Z,71.19
2018-03-17T01:31:49.360Z,70.83
2018-03-17T01:34:20.379Z,70.26
2018-03-17T01:36:51.342Z,69.67
2018-03-17T01:39:22.369Z,69.17
2018-03-17T01:41:53.385Z,68.71
2018-03-17T01:44:24.333Z,68.38
2018-03-17T01:46:55.380Z,68.07
2018-03-17T01:49:26.362Z,68.01
2018-03-17T01:51:57.433Z,67.91
2018-03-17T01:54:30.258Z,67.88
2018-03-17T01:57:01.261Z,68.02
2018-03-17T01:59:32.293Z,68.37
2018-03-17T02:02:03.305Z,68.53
2018-03-17T02:04:34.357Z,68.99
2018-03-17T02:07:05.329Z,69.17
2018-03-17T02:09:36.300Z,69.42
2018-03-17T02:12:07.313Z,69.42
2018-03-17T02:14:38.347Z,69.69
2018-03-17T02:17:09.387Z,70.04
2018-03-17T02:19:40.392Z,69.99
2018-03-17T02:22:11.462Z,69.93
2018-03-17T02:24:42.521Z,70.09
2018-03-17T02:27:13.500Z,70.69
2018-03-17T02:29:44.506Z,70.63
2018-03-17T02:32:15.712Z,70.42
2018-03-17T02:34:46.747Z,70.41
2018-03-17T02:37:17.761Z,70.27
2018-03-17T02:39:48.802Z,70.62
2018-03-17T02:42:19.799Z,70.46
2018-03-17T02:44:50.792Z,70.61
2018-03-17T02:47:21.804Z,70.41
2018-03-17T02:49:52.801Z,70.60
2018-03-17T02:52:23.773Z,70.70
2018-03-17T02:54:54.761Z,70.52
2018-03-17T02:57:25.752Z,70.29
2018-03-17T02:59:56.800Z,70.21
2018-03-17T03:02:27.772Z,70.42
2018-03-17T03:04:58.774Z,70.40
2018-03-17T03:07:29.765Z,70.37
2018-03-17T03:10:00.782Z,70.51
2018-03-17T03:12:31.763Z,70.36
2018-03-17T03:15:02.816Z,70.43
2018-03-17T03:17:33.822Z,70.47
2018-03-17T03:20:04.861Z,70.44
2018-03-17T03:22:35.819Z,70.38
2018-03-17T03:25:06.830Z,70.27
2018-03-17T03:27:37.808Z,70.29
2018-03-17T03:30:08.845Z,70.32
2018-03-17T03:32:39.869Z,70.67
2018-03-17T03:35:10.848Z,70.41
2018-03-17T03:37:41.860Z,69.95
2018-03-17T03:40:12.852Z,69.70
2018-03-17T03:42:43.804Z,69.50
2018-03-17T03:45:14.759Z,69.36
2018-03-17T03:47:45.739Z,69.25
2018-03-17T03:50:16.714Z,69.31
2018-03-17T03:52:47.713Z,69.45
2018-03-17T03:55:18.684Z,69.25
2018-03-17T03:57:49.649Z,69.11
2018-03-17T04:00:20.634Z,68.65
2018-03-17T04:02:51.681Z,68.15
2018-03-17T04:05:22.671Z,67.77
2018-03-17T04:07:53.657Z,67.41
2018-03-17T04:10:24.715Z,67.24
2018-03-17T04:12:55.706Z,66.85
2018-03-17T04:15:26.769Z,66.70
2018-03-17T04:17:57.722Z,66.54
2018-03-17T04:20:28.749Z,66.48
2018-03-17T04:22:59.722Z,66.43
2018-03-17T04:25:30.724Z,66.17
2018-03-17T04:28:01.710Z,66.15
2018-03-17T04:30:32.721Z,66.38
2018-03-17T04:33:03.708Z,66.82
2018-03-17T04:35:34.724Z,66.80
2018-03-17T04:38:05.724Z,66.55
2018-03-17T04:40:36.749Z,67.18
2018-03-17T04:43:07.771Z,68.33
2018-03-17T04:45:38.755Z,68.93
2018-03-17T04:48:09.729Z,69.35
2018-03-17T04:50:40.796Z,69.01
2018-03-17T04:53:11.761Z,68.87
2018-03-17T04:55:42.764Z,68.97
2018-03-17T04:58:13.777Z,68.95
2018-03-17T05:00:44.771Z,69.29
2018-03-17T05:03:15.789Z,69.53
2018-03-17T05:05:46.786Z,69.51
2018-03-17T05:08:17.776Z,70.06
2018-03-17T05:10:48.762Z,69.47
2018-03-17T05:13:19.735Z,68.96
2018-03-17T05:15:50.746Z,68.41
2018-03-17T05:18:21.715Z,67.94
2018-03-17T05:20:52.727Z,67.39
2018-03-17T05:23:23.691Z,67.17
2018-03-17T05:25:54.684Z,66.81
2018-03-17T05:28:25.665Z,67.12
2018-03-17T05:30:56.638Z,67.70
2018-03-17T05:33:27.634Z,68.17
2018-03-17T05:35:58.656Z,68.13
2018-03-17T05:38:29.681Z,68.22
2018-03-17T05:41:00.680Z,68.03
2018-03-17T05:43:31.663Z,68.49
2018-03-17T05:46:05.594Z,68.51
2018-03-17T05:48:36.595Z,68.81
2018-03-17T05:51:07.613Z,68.71
2018-03-17T05:53:38.610Z,68.42
2018-03-17T05:56:09.606Z,68.25
2018-03-17T05:58:40.646Z,68.25
2018-03-17T06:01:11.630Z,68.21
2018-03-17T06:03:42.653Z,68.22
2018-03-17T06:06:13.667Z,67.88
2018-03-17T06:08:44.657Z,67.35
2018-03-17T06:11:15.697Z,67.43
2018-03-17T06:13:46.712Z,67.62
2018-03-17T06:16:17.710Z,67.86
2018-03-17T06:18:48.744Z,67.95
2018-03-17T06:21:19.755Z,67.98
2018-03-17T06:23:50.738Z,68.34
2018-03-17T06:26:21.731Z,68.48
2018-03-17T06:28:52.728Z,68.17
2018-03-17T06:31:23.733Z,67.57
2018-03-17T06:33:54.757Z,67.57
2018-03-17T06:36:25.783Z,67.65
2018-03-17T06:38:56.792Z,67.56
2018-03-17T06:41:27.795Z,67.12
2018-03-17T06:43:58.784Z,66.99
2018-03-17T06:46:29.799Z,66.77
2018-03-17T06:49:00.814Z,66.78
2018-03-17T06:51:31.845Z,66.30
2018-03-17T06:54:02.855Z,66.12
2018-03-17T06:56:33.844Z,66.10
2018-03-17T06:59:04.859Z,65.74
2018-03-17T07:01:35.917Z,65.20
2018-03-17T07:04:06.924Z,64.54
2018-03-17T07:06:37.973Z,63.91
2018-03-17T07:09:09.011Z,63.90
2018-03-17T07:11:40.023Z,63.97
2018-03-17T07:14:11.021Z,63.63
2018-03-17T07:16:42.018Z,63.61
2018-03-17T07:19:13.063Z,63.08
2018-03-17T07:21:44.121Z,63.51
2018-03-17T07:24:15.139Z,63.71
2018-03-17T07:26:46.176Z,63.20
2018-03-17T07:29:17.178Z,62.72
2018-03-17T07:31:48.210Z,62.38
2018-03-17T07:34:19.229Z,62.78
2018-03-17T07:36:50.280Z,62.00
2018-03-17T07:39:21.321Z,62.11
2018-03-17T07:41:52.486Z,62.15
2018-03-17T07:44:23.504Z,61.81
2018-03-17T07:46:54.503Z,61.09
2018-03-17T07:49:25.598Z,60.26
2018-03-17T07:51:56.573Z,61.14
2018-03-17T07:54:27.598Z,61.58
2018-03-17T07:56:58.563Z,60.50
2018-03-17T07:59:29.568Z,60.03
2018-03-17T08:02:00.582Z,59.99
2018-03-17T08:04:31.582Z,59.56
2018-03-17T08:07:02.667Z,59.02
2018-03-17T08:09:33.729Z,58.49
2018-03-17T08:12:04.714Z,58.46
2018-03-17T08:14:35.675Z,58.94
2018-03-17T08:17:06.685Z,58.28
2018-03-17T08:19:37.703Z,59.13
2018-03-17T08:22:08.742Z,59.36
2018-03-17T08:24:39.756Z,59.17
2018-03-17T08:27:10.797Z,58.80
2018-03-17T08:29:41.822Z,59.54
2018-03-17T08:32:12.872Z,60.34
2018-03-17T08:34:43.892Z,60.06
2018-03-17T08:37:21.951Z,59.25
2018-03-17T08:39:52.966Z,58.73
2018-03-17T08:42:23.958Z,59.15
2018-03-17T08:44:55.010Z,58.74
2018-03-17T08:47:26.074Z,57.35
2018-03-17T08:49:57.156Z,58.15
2018-03-17T08:52:28.238Z,58.76
2018-03-17T08:54:59.243Z,59.47
2018-03-17T08:57:30.195Z,59.50
2018-03-17T09:00:01.203Z,60.14
2018-03-17T09:02:32.164Z,59.73
2018-03-17T09:05:03.217Z,59.55
2018-03-17T09:07:34.257Z,59.27
2018-03-17T09:10:05.203Z,59.10
2018-03-17T09:12:36.318Z,58.29
2018-03-17T09:15:07.303Z,58.18
2018-03-17T09:17:38.284Z,58.23
2018-03-17T09:20:09.269Z,57.54
2018-03-17T09:22:40.250Z,56.45
2018-03-17T09:25:11.277Z,56.45
2018-03-17T09:27:42.334Z,55.94
2018-03-17T09:30:13.320Z,55.37
2018-03-17T09:32:44.327Z,54.70
2018-03-17T09:35:15.305Z,55.10
2018-03-17T09:37:46.313Z,55.57
2018-03-17T09:40:17.330Z,56.16
2018-03-17T09:42:48.356Z,55.99
2018-03-17T09:45:19.382Z,56.02
2018-03-17T09:47:50.375Z,55.68
2018-03-17T09:50:21.385Z,55.76
2018-03-17T09:52:52.363Z,55.38
2018-03-17T09:55:23.362Z,55.62
2018-03-17T09:57:54.604Z,55.79
2018-03-17T10:00:25.651Z,55.25
2018-03-17T10:02:56.618Z,53.87
2018-03-17T10:05:27.611Z,52.79
2018-03-17T10:07:58.573Z,53.49
2018-03-17T10:10:29.591Z,53.19
2018-03-17T10:13:00.575Z,52.76
2018-03-17T10:15:31.535Z,52.65
2018-03-17T10:18:02.507Z,51.43
2018-03-17T10:20:33.485Z,50.44
2018-03-17T10:23:04.516Z,49.87
2018-03-17T10:25:35.507Z,49.95
2018-03-17T10:28:06.481Z,48.95
2018-03-17T10:30:37.469Z,48.95
2018-03-17T10:33:08.451Z,49.26
2018-03-17T10:35:39.454Z,48.26
2018-03-17T10:38:10.455Z,48.56
2018-03-17T10:40:41.480Z,49.42
2018-03-17T10:43:12.534Z,50.30
2018-03-17T10:45:43.559Z,50.48
2018-03-17T10:48:14.586Z,49.93
2018-03-17T10:50:45.577Z,49.33
2018-03-17T10:53:16.584Z,49.72
2018-03-17T10:55:47.619Z,48.47
2018-03-17T10:58:18.657Z,49.08
2018-03-17T11:00:53.702Z,49.06
2018-03-17T11:03:24.703Z,48.69
2018-03-17T11:05:55.819Z,48.11
2018-03-17T11:08:26.871Z,47.53
2018-03-17T11:10:57.973Z,48.40
2018-03-17T11:13:28.986Z,48.76
2018-03-17T11:16:00.019Z,48.01
2018-03-17T11:18:31.179Z,47.29
2018-03-17T11:21:02.179Z,46.25
2018-03-17T11:23:33.170Z,45.13
2018-03-17T11:26:04.223Z,44.61
2018-03-17T11:28:35.233Z,44.74
2018-03-17T11:31:06.235Z,44.97
2018-03-17T11:33:37.204Z,44.03
2018-03-17T11:36:08.187Z,42.93
2018-03-17T11:38:39.221Z,43.57
2018-03-17T11:41:10.224Z,43.49
2018-03-17T11:43:41.263Z,43.68
2018-03-17T11:46:12.239Z,43.36
2018-03-17T11:48:43.224Z,42.36
2018-03-17T11:51:14.184Z,43.29
2018-03-17T11:53:45.171Z,44.54
2018-03-17T11:56:16.140Z,44.94
2018-03-17T11:58:47.200Z,45.18
2018-03-17T12:01:18.214Z,45.28
2018-03-17T12:03:49.280Z,45.04
2018-03-17T12:06:20.252Z,45.73
2018-03-17T12:08:51.330Z,44.90
2018-03-17T12:11:22.360Z,44.49
2018-03-17T12:13:53.363Z,43.98
2018-03-17T12:16:24.333Z,43.36
2018-03-17T12:18:55.447Z,43.20
2018-03-17T12:21:26.421Z,42.51
2018-03-17T12:23:57.424Z,42.91
2018-03-17T12:26:28.388Z,42.27
2018-03-17T12:28:59.413Z,41.63
2018-03-17T12:31:30.400Z,40.97
2018-03-17T12:34:01.440Z,40.92
2018-03-17T12:36:32.469Z,42.04
2018-03-17T12:39:03.508Z,42.94
2018-03-17T12:41:34.599Z,43.74
2018-03-17T12:44:05.597Z,43.88
2018-03-17T12:46:36.593Z,44.26
2018-03-17T12:49:07.605Z,44.61
2018-03-17T12:51:38.596Z,44.87
2018-03-17T12:54:09.551Z,43.25
2018-03-17T12:56:40.608Z,43.49
2018-03-17T12:59:11.591Z,43.52
2018-03-17T13:01:42.557Z,45.48
2018-03-17T13:04:13.621Z,46.54
2018-03-17T13:06:44.652Z,46.44
2018-03-17T13:09:15.638Z,46.80
2018-03-17T13:11:46.675Z,46.77
2018-03-17T13:14:17.711Z,46.60
2018-03-17T13:16:48.724Z,46.67
2018-03-17T13:19:27.085Z,46.43
2018-03-17T13:21:58.019Z,46.78
2018-03-17T13:24:29.033Z,47.55
2018-03-17T13:27:12.288Z,47.57
2018-03-17T13:29:43.351Z,48.36
2018-03-17T13:32:26.856Z,48.15
2018-03-17T13:34:57.931Z,48.36
2018-03-17T13:37:39.972Z,48.95
2018-03-17T13:40:23.286Z,49.74
2018-03-17T13:42:54.529Z,49.34
2018-03-17T13:45:25.569Z,48.42
2018-03-17T13:47:56.593Z,47.28
2018-03-17T13:50:28.479Z,47.22
2018-03-17T13:52:59.503Z,47.16
2018-03-17T13:55:30.510Z,47.99
2018-03-17T13:58:01.531Z,49.49
2018-03-17T14:00:33.386Z,50.68
2018-03-17T14:03:04.378Z,51.21
2018-03-17T14:05:35.545Z,51.30
2018-03-17T14:08:06.536Z,51.14
2018-03-17T14:10:37.609Z,51.03
2018-03-17T14:13:08.602Z,51.31
2018-03-17T14:15:39.589Z,51.03
2018-03-17T14:18:10.615Z,51.03
2018-03-17T14:20:41.602Z,51.47
2018-03-17T14:23:12.605Z,52.31
2018-03-17T14:25:43.864Z,52.60
2018-03-17T14:28:14.841Z,53.31
2018-03-17T14:30:45.959Z,53.30
2018-03-17T14:33:16.988Z,52.50
2018-03-17T14:35:48.023Z,52.53
2018-03-17T14:38:19.102Z,53.01
2018-03-17T14:40:50.119Z,52.56
2018-03-17T14:43:21.113Z,52.77
2018-03-17T14:45:52.140Z,53.39
2018-03-17T14:48:23.171Z,53.25
2018-03-17T14:50:54.168Z,53.42
2018-03-17T14:53:25.172Z,54.18
2018-03-17T14:55:56.209Z,54.46
2018-03-17T14:58:27.249Z,54.47
2018-03-17T15:00:58.344Z,54.36
2018-03-17T15:03:29.361Z,55.13
2018-03-17T15:06:00.472Z,54.94
2018-03-17T15:08:31.509Z,54.66
2018-03-17T15:11:02.536Z,54.33
2018-03-17T15:13:33.539Z,54.50
2018-03-17T15:16:04.527Z,54.23
2018-03-17T15:18:35.666Z,54.31
2018-03-17T15:21:06.666Z,54.96
2018-03-17T15:23:37.662Z,55.22
2018-03-17T15:26:08.662Z,55.38
2018-03-17T15:28:39.633Z,55.39
2018-03-17T15:31:10.673Z,55.27
2018-03-17T15:33:41.648Z,55.67
2018-03-17T15:36:12.669Z,55.76
2018-03-17T15:38:43.723Z,55.99
2018-03-17T15:41:14.718Z,57.01
2018-03-17T15:43:45.727Z,57.44
2018-03-17T15:46:16.720Z,57.78
2018-03-17T15:48:47.731Z,58.27
2018-03-17T15:51:18.720Z,58.44
2018-03-17T15:53:49.757Z,58.75
2018-03-17T15:56:20.765Z,58.43
2018-03-17T15:58:51.824Z,57.97
2018-03-17T16:01:22.875Z,57.94
2018-03-17T16:03:53.867Z,58.21
2018-03-17T16:06:24.954Z,58.50
2018-03-17T16:08:55.916Z,58.08
2018-03-17T16:11:26.934Z,57.99
2018-03-17T16:13:57.905Z,58.84
2018-03-17T16:16:28.905Z,59.42
2018-03-17T16:18:59.870Z,59.78
2018-03-17T16:21:30.894Z,60.26
2018-03-17T16:24:01.920Z,60.42
2018-03-17T16:26:32.911Z,60.25
2018-03-17T16:29:03.970Z,60.19
2018-03-17T16:31:35.219Z,60.02
2018-03-17T16:34:06.259Z,60.03
2018-03-17T16:36:37.277Z,59.70
2018-03-17T16:39:08.314Z,59.39
2018-03-17T16:41:39.317Z,59.67
2018-03-17T16:44:10.358Z,60.07
2018-03-17T16:46:41.416Z,60.34
2018-03-17T16:49:12.621Z,60.73
2018-03-17T16:51:43.672Z,60.76
2018-03-17T16:54:14.684Z,60.72
2018-03-17T16:56:45.757Z,60.01
2018-03-17T16:59:16.786Z,59.84
2018-03-17T17:01:47.743Z,60.43
2018-03-17T17:04:18.745Z,60.78
2018-03-17T17:06:49.764Z,60.56
2018-03-17T17:09:20.740Z,60.44
2018-03-17T17:11:51.779Z,60.29
2018-03-17T17:14:22.829Z,60.21
2018-03-17T17:16:53.842Z,60.30
2018-03-17T17:19:26.217Z,59.91
2018-03-17T17:21:57.305Z,59.66
2018-03-17T17:24:28.306Z,59.97
2018-03-17T17:26:59.596Z,59.52
2018-03-17T17:29:30.624Z,59.34
2018-03-17T17:32:01.626Z,60.19
2018-03-17T17:34:32.638Z,60.33
2018-03-17T17:37:03.684Z,60.77
2018-03-17T17:39:34.709Z,60.71
2018-03-17T17:42:05.689Z,59.89
2018-03-17T17:44:36.675Z,59.25
2018-03-17T17:47:07.643Z,59.09
2018-03-17T17:49:38.715Z,59.10
2018-03-17T17:52:10.902Z,58.85
2018-03-17T17:54:41.979Z,59.49
2018-03-17T17:57:13.045Z,59.48
2018-03-17T17:59:44.056Z,59.39
2018-03-17T18:02:15.015Z,58.90
2018-03-17T18:04:46.083Z,58.89
2018-03-17T18:07:17.108Z,58.45
2018-03-17T18:09:48.095Z,58.61
2018-03-17T18:12:19.111Z,57.97
2018-03-17T18:14:50.147Z,57.61
2018-03-17T18:17:21.160Z,57.55
2018-03-17T18:19:52.233Z,57.58
2018-03-17T18:22:23.247Z,57.27
2018-03-17T18:24:54.314Z,57.22
2018-03-17T18:27:25.379Z,56.96
2018-03-17T18:29:56.537Z,56.64
2018-03-17T18:32:27.710Z,56.67
2018-03-17T18:34:58.919Z,56.67
2018-03-17T18:37:29.930Z,56.79
2018-03-17T18:40:01.019Z,56.57
2018-03-17T18:42:32.099Z,57.17
2018-03-17T18:45:03.177Z,57.69
2018-03-17T18:47:34.209Z,58.18
2018-03-17T18:50:05.220Z,58.26
2018-03-17T18:52:36.302Z,58.63
2018-03-17T18:55:07.419Z,58.08
2018-03-17T18:57:38.454Z,57.50
2018-03-17T19:00:10.240Z,56.83
2018-03-17T19:02:41.585Z,57.27
2018-03-17T19:05:12.939Z,57.20
2018-03-17T19:07:43.965Z,57.41
2018-03-17T19:10:15.021Z,56.89
2018-03-17T19:12:46.394Z,57.33
2018-03-17T19:15:17.462Z,57.57
2018-03-17T19:17:48.491Z,57.63
2018-03-17T19:20:26.567Z,58.02
2018-03-17T19:22:58.079Z,58.77
2018-03-17T19:25:36.174Z,59.39
2018-03-17T19:28:07.230Z,60.30
2018-03-17T19:30:38.268Z,60.20
2018-03-17T19:33:09.289Z,61.51
2018-03-17T19:35:40.374Z,61.02
2018-03-17T19:38:11.481Z,61.83
2018-03-17T19:40:42.523Z,62.42
2018-03-17T19:43:13.547Z,62.36
2018-03-17T19:45:44.588Z,63.65
2018-03-17T19:48:15.560Z,63.24
2018-03-17T19:50:46.732Z,63.19
2018-03-17T19:53:18.119Z,63.59
2018-03-17T19:55:49.280Z,63.55
2018-03-17T19:58:20.284Z,63.68
2018-03-17T20:00:51.331Z,63.70
2018-03-17T20:03:22.689Z,63.87
2018-03-17T20:05:54.159Z,64.24
2018-03-17T20:08:25.148Z,63.99
2018-03-17T20:10:56.178Z,64.66
2018-03-17T20:13:27.251Z,64.94
2018-03-17T20:15:58.279Z,64.83
2018-03-17T20:18:29.280Z,64.16
2018-03-17T20:21:00.322Z,65.00
2018-03-17T20:23:31.427Z,64.83
